createdAt,value
2023-01-10T00:04:39.249Z,71.07
2023-01-10T00:18:05.669Z,70.72
2023-01-10T00:25:39.302Z,70.98
2023-01-10T00:41:35.392Z,70.64
2023-01-10T00:46:59.019Z,70.67
2023-01-10T00:53:39.236Z,70.51
2023-01-10T00:59:43.585Z,70.59
2023-01-10T01:12:49.733Z,70.33
2023-01-10T01:19:33.897Z,70.43
2023-01-10T01:45:56.912Z,71.13
2023-01-10T02:32:48.046Z,71.44
2023-01-10T02:39:01.872Z,71.51
2023-01-10T02:46:44.377Z,71.56
2023-01-10T02:53:09.790Z,71.60
2023-01-10T03:05:52.456Z,71.71
2023-01-10T03:26:59.361Z,71.91
2023-01-10T03:33:23.456Z,71.69
2023-01-10T03:39:33.166Z,71.86
2023-01-10T03:46:13.633Z,72.54
2023-01-10T03:51:47.843Z,71.83
2023-01-10T03:58:13.898Z,71.96
2023-01-10T04:04:20.820Z,71.64
2023-01-10T04:10:59.340Z,71.71
2023-01-10T04:16:31.199Z,71.32
2023-01-10T04:22:55.536Z,71.30
2023-01-10T04:29:12.886Z,70.83
2023-01-10T04:35:39.897Z,70.69
2023-01-10T05:53:34.554Z,70.14
2023-01-10T06:00:14.010Z,69.83
2023-01-10T06:05:59.125Z,69.78
2023-01-10T06:12:39.698Z,69.44
2023-01-10T06:19:27.770Z,69.42
2023-01-10T06:31:45.954Z,69.80
2023-01-10T06:38:20.442Z,69.71
2023-01-10T06:44:48.588Z,69.47
2023-01-10T06:51:34.750Z,68.93
2023-01-10T06:57:57.209Z,69.52
2023-01-10T07:04:21.146Z,69.48
2023-01-10T07:19:35.677Z,69.51
2023-01-10T07:25:34.698Z,69.25
2023-01-10T07:31:43.758Z,69.23
2023-01-10T07:38:20.937Z,69.31
2023-01-10T07:45:06.141Z,69.17
2023-01-10T07:57:57.734Z,69.28
2023-01-10T08:03:25.391Z,69.63
2023-01-10T08:09:38.790Z,70.14
2023-01-10T08:16:29.872Z,70.27
2023-01-10T08:30:05.963Z,69.81
2023-01-10T08:44:23.397Z,69.76
2023-01-10T09:04:17.602Z,69.99
2023-01-10T09:09:50.401Z,70.07
2023-01-10T09:15:36.556Z,69.81
2023-01-10T09:21:43.077Z,69.52
2023-01-10T09:27:36.499Z,68.92
2023-01-10T09:33:22.153Z,69.03
2023-01-10T09:38:48.542Z,68.94
2023-01-10T09:45:13.930Z,69.11
2023-01-10T09:52:22.778Z,69.09
2023-01-10T10:04:34.912Z,69.44
2023-01-10T10:10:32.602Z,69.33
2023-01-10T10:17:29.238Z,69.39
2023-01-10T10:32:17.176Z,68.85
2023-01-10T10:38:43.313Z,68.95
2023-01-10T10:44:54.542Z,69.25
2023-01-10T10:51:15.301Z,69.29
2023-01-10T11:04:44.620Z,69.16
2023-01-10T11:10:46.875Z,68.94
2023-01-10T11:23:39.429Z,67.74
2023-01-10T11:29:27.787Z,67.63
2023-01-10T11:50:28.699Z,67.94
2023-01-10T11:57:01.297Z,68.28
2023-01-10T12:03:09.703Z,68.38
2023-01-10T12:09:39.859Z,68.27
2023-01-10T12:15:19.642Z,68.62
2023-01-10T12:22:14.468Z,68.81
2023-01-10T12:28:48.842Z,68.62
2023-01-10T12:34:54.011Z,68.53
2023-01-10T12:41:28.698Z,68.62
2023-01-10T12:48:52.459Z,68.70
2023-01-10T13:16:21.325Z,69.68
2023-01-10T13:29:19.058Z,70.48
2023-01-10T13:36:01.426Z,70.33
2023-01-10T13:42:40.241Z,70.18
2023-01-10T13:48:29.428Z,70.40
2023-01-10T13:55:16.648Z,70.17
2023-01-10T14:02:52.510Z,69.70
2023-01-10T14:08:49.635Z,70.14
2023-01-10T14:15:30.267Z,70.01
2023-01-10T14:21:51.967Z,70.01
2023-01-10T14:28:21.661Z,70.03
2023-01-10T14:36:31.036Z,70.21
2023-01-10T14:48:01.528Z,69.97
2023-01-10T14:54:24.912Z,69.64
2023-01-10T15:00:36.936Z,69.71
2023-01-10T15:06:55.312Z,69.90
2023-01-10T15:13:45.784Z,70.47
2023-01-10T15:18:56.309Z,70.02
2023-01-10T15:25:11.364Z,70.04
2023-01-10T15:31:38.688Z,69.86
2023-01-10T15:37:38.319Z,69.79
2023-01-10T15:44:00.972Z,69.94
2023-01-10T15:50:16.889Z,69.97
2023-01-10T15:56:40.594Z,70.16
2023-01-10T16:03:03.867Z,70.27
2023-01-10T16:08:58.421Z,70.34
2023-01-10T16:15:02.697Z,70.46
2023-01-10T16:21:10.537Z,70.51
2023-01-10T16:27:03.064Z,70.59
2023-01-10T16:33:07.678Z,70.60
2023-01-10T16:39:31.871Z,70.82
2023-01-10T16:45:56.227Z,71.20
2023-01-10T16:52:08.307Z,71.59
2023-01-10T16:57:44.377Z,71.53
2023-01-10T17:03:52.198Z,71.33
2023-01-10T17:10:02.360Z,70.99
2023-01-10T17:16:20.588Z,70.57
2023-01-10T17:22:37.576Z,70.56
2023-01-10T17:28:51.175Z,70.77
2023-01-10T17:34:40.830Z,70.70
2023-01-10T17:41:08.411Z,70.53
2023-01-10T17:46:22.962Z,70.16
2023-01-10T17:57:34.618Z,69.75
2023-01-10T18:03:58.773Z,69.51
2023-01-10T18:09:56.485Z,69.47
2023-01-10T18:16:08.274Z,69.85
2023-01-10T18:23:00.287Z,69.68
2023-01-10T18:29:20.002Z,69.63
2023-01-10T18:35:54.719Z,69.76
2023-01-10T18:42:04.928Z,69.92
2023-01-10T18:54:24.162Z,69.91
2023-01-10T19:01:00.492Z,69.85
2023-01-10T19:07:34.070Z,69.91
2023-01-10T19:26:56.220Z,71.12
2023-01-10T19:33:05.943Z,69.46
2023-01-10T19:38:52.941Z,69.22
2023-01-10T19:44:46.516Z,69.45
2023-01-10T19:55:41.705Z,69.12
2023-01-10T20:01:25.806Z,69.42
2023-01-10T20:07:12.958Z,69.56
2023-01-10T20:12:48.994Z,69.13
2023-01-10T20:18:15.677Z,69.23
2023-01-10T20:24:16.781Z,69.23
2023-01-10T20:38:01.670Z,69.00
2023-01-10T21:03:07.734Z,69.39
2023-01-10T21:09:26.108Z,69.58
2023-01-10T21:16:06.214Z,69.68
2023-01-10T21:24:14.335Z,69.63
2023-01-10T21:29:24.092Z,69.11
2023-01-10T21:35:35.354Z,68.79
2023-01-10T21:42:48.503Z,68.75
2023-01-10T21:48:25.788Z,68.68
2023-01-10T21:54:22.883Z,68.66
2023-01-10T22:00:34.682Z,68.52
2023-01-10T22:06:50.426Z,68.34
2023-01-10T22:20:29.652Z,68.63
2023-01-10T23:26:45.880Z,67.46
2023-01-10T23:33:05.798Z,67.84
2023-01-10T23:38:24.749Z,67.72
2023-01-10T23:44:10.758Z,67.81
2023-01-10T23:50:04.406Z,67.46
2023-01-10T23:56:04.045Z,67.09
